Time;durP1;ratioP1;P1;durP2;ratioP2;P2;SDS_P1;SDS_P2;PMS_P1;PMS_P2;Temp;Humidity;BMP_temperature;BMP_pressure;BME280_temperature;BME280_humidity;BME280_pressure;Samples;Min_cycle;Max_cycle;Signal;HPM_P1;HPM_P2
2021/07/09 00:01:28;;;;;;;11.13;7.17;;;;;;;18.17;100.00;101083.31;3574106;40;20131;-54
2021/07/09 00:03:56;;;;;;;11.38;8.57;;;;;;;18.19;100.00;101081.56;3574354;40;20060;-52
2021/07/09 00:06:24;;;;;;;12.82;8.35;;;;;;;18.03;100.00;101061.69;3574252;40;20084;-48
2021/07/09 00:08:51;;;;;;;12.25;8.57;;;;;;;17.85;100.00;101062.53;3573715;40;20073;-52
2021/07/09 00:11:18;;;;;;;18.02;11.10;;;;;;;17.78;100.00;101048.69;3574243;40;20081;-48
2021/07/09 00:13:46;;;;;;;18.58;9.27;;;;;;;18.02;100.00;101042.66;3573962;40;20092;-49
2021/07/09 00:16:15;;;;;;;10.63;9.18;;;;;;;17.98;100.00;101042.66;3574235;40;20065;-49
2021/07/09 00:18:43;;;;;;;12.48;9.48;;;;;;;18.03;100.00;101040.97;3574110;40;20076;-51
2021/07/09 00:21:11;;;;;;;11.50;8.93;;;;;;;18.08;100.00;101048.75;3574010;40;20056;-55
2021/07/09 00:23:39;;;;;;;13.70;10.35;;;;;;;17.83;100.00;101038.31;3573964;40;20060;-52
2021/07/09 00:26:06;;;;;;;10.35;8.98;;;;;;;17.72;100.00;101040.00;3574116;40;22087;-52
2021/07/09 00:28:33;;;;;;;13.27;10.48;;;;;;;17.61;100.00;101040.00;3574138;40;20108;-52
2021/07/09 00:31:01;;;;;;;14.50;9.88;;;;;;;17.87;100.00;101039.19;3573978;40;20069;-51
2021/07/09 00:33:29;;;;;;;10.52;9.52;;;;;;;17.87;100.00;101037.47;3573703;40;20108;-52
2021/07/09 00:35:56;;;;;;;11.13;9.52;;;;;;;18.14;100.00;101025.41;3573874;40;20489;-50
2021/07/09 00:38:23;;;;;;;11.85;9.77;;;;;;;17.86;100.00;101025.38;3574078;40;20076;-52
2021/07/09 00:40:50;;;;;;;10.88;9.77;;;;;;;17.73;100.00;101024.50;3573922;40;20116;-50
2021/07/09 00:43:17;;;;;;;11.55;9.15;;;;;;;17.68;100.00;101020.16;3574076;40;20524;-52
2021/07/09 00:45:44;;;;;;;12.27;9.20;;;;;;;17.75;100.00;101020.19;3574178;40;20453;-49
2021/07/09 00:48:11;;;;;;;10.77;9.65;;;;;;;17.76;100.00;101028.84;3573605;40;20056;-50
2021/07/09 00:50:38;;;;;;;12.05;10.52;;;;;;;17.69;100.00;101032.22;3573838;40;20116;-49
2021/07/09 00:53:06;;;;;;;12.23;9.73;;;;;;;17.84;100.00;101028.81;3573999;40;20060;-50
2021/07/09 00:55:34;;;;;;;11.77;10.68;;;;;;;17.55;100.00;101025.28;3573870;40;20345;-47
2021/07/09 00:58:02;;;;;;;13.27;11.35;;;;;;;17.54;100.00;101014.94;3573271;40;20107;-50
2021/07/09 01:00:30;;;;;;;11.23;10.07;;;;;;;17.68;100.00;101010.63;3573564;40;20877;-53
2021/07/09 01:02:57;;;;;;;11.18;9.52;;;;;;;17.73;100.00;101014.13;3573789;40;20096;-53
2021/07/09 01:05:25;;;;;;;9.43;8.55;;;;;;;17.76;100.00;101015.88;3573607;40;20064;-54
2021/07/09 01:07:53;;;;;;;23.45;10.10;;;;;;;17.80;100.00;101020.22;3573462;40;20454;-48
2021/07/09 01:10:20;;;;;;;11.23;10.15;;;;;;;17.79;100.00;101018.44;3573699;40;20085;-50
2021/07/09 01:12:48;;;;;;;10.07;9.18;;;;;;;17.67;100.00;101018.41;3573677;40;20053;-54
2021/07/09 01:15:18;;;;;;;11.57;10.38;;;;;;;17.64;100.00;101013.22;3573860;40;20347;-53
2021/07/09 01:17:45;;;;;;;11.95;10.65;;;;;;;17.68;100.00;101002.00;3573507;40;20053;-49
2021/07/09 01:20:15;;;;;;;11.35;10.27;;;;;;;17.77;100.00;101002.91;3573580;40;20089;-51
2021/07/09 01:22:46;;;;;;;11.48;10.25;;;;;;;17.86;100.00;101008.97;3573712;40;20081;-53
2021/07/09 01:25:19;;;;;;;13.27;10.82;;;;;;;17.50;100.00;100995.94;3573683;40;20057;-51
2021/07/09 01:27:49;;;;;;;12.57;9.70;;;;;;;17.71;100.00;101004.63;3573860;40;20972;-53
2021/07/09 01:30:22;;;;;;;11.93;10.27;;;;;;;17.70;100.00;100987.31;3573811;40;20084;-49
2021/07/09 01:32:50;;;;;;;11.85;10.50;;;;;;;17.69;100.00;100985.59;3573267;40;20057;-52
2021/07/09 01:35:19;;;;;;;12.63;10.50;;;;;;;17.77;100.00;100982.19;3573522;40;20096;-53
2021/07/09 01:37:57;;;;;;;11.68;9.65;;;;;;;17.73;100.00;100987.34;3573627;40;20082;-48
2021/07/09 01:40:25;;;;;;;12.13;10.77;;;;;;;17.87;100.00;100979.59;3573169;40;20466;-51
2021/07/09 01:42:53;;;;;;;10.80;9.40;;;;;;;17.66;100.00;100978.72;3573195;40;20109;-51
2021/07/09 01:45:21;;;;;;;12.23;10.95;;;;;;;17.52;100.00;100963.16;3573387;40;20056;-53
2021/07/09 01:47:49;;;;;;;10.63;9.63;;;;;;;17.76;100.00;100956.28;3573260;40;20089;-47
2021/07/09 01:50:18;;;;;;;12.68;11.43;;;;;;;17.58;100.00;100948.47;3573534;40;20105;-47
2021/07/09 01:52:45;;;;;;;12.57;11.27;;;;;;;17.55;100.00;100947.59;3573311;40;20045;-54
2021/07/09 01:55:14;;;;;;;11.90;10.75;;;;;;;17.60;100.00;100939.84;3573825;40;20861;-49
2021/07/09 01:57:43;;;;;;;11.77;10.70;;;;;;;17.55;100.00;100952.78;3573237;40;20055;-51
2021/07/09 02:00:15;;;;;;;12.57;11.35;;;;;;;17.76;100.00;100957.16;3573173;40;20059;-52
2021/07/09 02:02:43;;;;;;;14.23;10.70;;;;;;;17.79;100.00;100945.91;3573469;40;20083;-49
2021/07/09 02:05:14;;;;;;;11.55;10.55;;;;;;;17.54;100.00;100940.69;3572946;40;20089;-51
2021/07/09 02:07:43;;;;;;;15.02;12.32;;;;;;;17.44;100.00;100946.72;3573103;40;20053;-53
2021/07/09 02:10:13;;;;;;;13.65;12.25;;;;;;;17.37;100.00;100950.16;3574221;40;20414;-50
2021/07/09 02:12:41;;;;;;;15.98;11.77;;;;;;;17.43;100.00;100947.59;3574974;40;20096;-51
2021/07/09 02:15:11;;;;;;;12.85;11.50;;;;;;;17.38;100.00;100944.16;3574890;40;20073;-50
2021/07/09 02:17:40;;;;;;;13.88;11.77;;;;;;;17.47;100.00;100946.75;3574513;40;20105;-51
2021/07/09 02:20:10;;;;;;;14.43;11.85;;;;;;;17.40;100.00;100946.72;3574464;40;20434;-49
2021/07/09 02:22:37;;;;;;;12.82;11.48;;;;;;;17.72;100.00;100946.75;3574784;40;20065;-49
2021/07/09 02:25:05;;;;;;;11.60;10.43;;;;;;;17.84;100.00;100949.41;3574774;40;20152;-51
2021/07/09 02:27:37;;;;;;;14.30;11.52;;;;;;;17.55;100.00;100947.59;3574460;40;20108;-52
2021/07/09 02:30:07;;;;;;;13.35;11.63;;;;;;;17.48;100.00;100935.53;3574717;40;20059;-54
2021/07/09 02:32:34;;;;;;;13.20;11.32;;;;;;;17.52;100.00;100929.50;3574802;40;20089;-51
2021/07/09 02:35:05;;;;;;;12.55;11.45;;;;;;;17.41;100.00;100923.41;3574648;40;20057;-48
2021/07/09 02:37:33;;;;;;;12.90;11.60;;;;;;;17.62;100.00;100925.19;3574577;40;20067;-49
2021/07/09 02:40:00;;;;;;;14.25;11.57;;;;;;;17.50;100.00;100936.38;3574577;40;20093;-48
2021/07/09 02:42:27;;;;;;;12.52;11.15;;;;;;;17.78;100.00;100944.19;3574595;40;20060;-48
2021/07/09 02:44:54;;;;;;;11.95;10.70;;;;;;;17.55;100.00;100945.00;3574547;40;20097;-48
2021/07/09 02:47:21;;;;;;;12.68;11.38;;;;;;;17.73;100.00;100951.97;3574343;40;20072;-51
2021/07/09 02:49:48;;;;;;;12.73;11.52;;;;;;;17.64;100.00;100945.88;3574380;40;20096;-47
2021/07/09 02:52:15;;;;;;;13.25;11.55;;;;;;;17.67;100.00;100939.00;3574762;40;20064;-47
2021/07/09 02:54:42;;;;;;;11.93;10.85;;;;;;;17.66;100.00;100939.00;3574670;40;20463;-47
2021/07/09 02:57:09;;;;;;;12.23;10.95;;;;;;;17.59;100.00;100932.94;3574220;40;20059;-49
2021/07/09 02:59:36;;;;;;;12.05;10.90;;;;;;;17.73;100.00;100935.53;3574417;40;20049;-51
2021/07/09 03:02:03;;;;;;;11.98;10.82;;;;;;;17.74;100.00;100929.50;3574109;40;20081;-50
2021/07/09 03:04:30;;;;;;;12.40;11.23;;;;;;;17.64;100.00;100925.16;3574345;40;20137;-49
2021/07/09 03:06:57;;;;;;;12.65;11.10;;;;;;;17.57;100.00;100919.13;3574470;40;20089;-52
2021/07/09 03:09:24;;;;;;;12.85;10.70;;;;;;;17.52;100.00;100920.88;3574470;40;20455;-51
2021/07/09 03:11:51;;;;;;;13.02;11.73;;;;;;;17.56;100.00;100926.03;3574306;40;20147;-53
2021/07/09 03:14:18;;;;;;;12.57;11.30;;;;;;;17.66;100.00;100923.47;3574658;40;20077;-47
2021/07/09 03:16:45;;;;;;;11.75;10.52;;;;;;;17.62;100.00;100924.31;3574771;40;20093;-49
2021/07/09 03:19:12;;;;;;;14.35;11.77;;;;;;;17.47;100.00;100918.25;3576848;40;20336;-56
2021/07/09 03:21:39;;;;;;;11.85;10.70;;;;;;;17.69;100.00;100918.25;3579288;40;20057;-49
2021/07/09 03:24:06;;;;;;;12.13;10.90;;;;;;;17.58;100.00;100914.81;3577054;40;20076;-54
2021/07/09 03:26:34;;;;;;;12.93;11.63;;;;;;;17.46;100.00;100919.09;3574158;40;20116;-50
2021/07/09 03:29:02;;;;;;;11.90;10.80;;;;;;;17.65;100.00;100921.72;3574224;40;20076;-51
2021/07/09 03:31:32;;;;;;;15.27;12.18;;;;;;;17.54;100.00;100925.16;3574155;40;20077;-47
2021/07/09 03:34:00;;;;;;;12.60;11.40;;;;;;;17.51;100.00;100919.09;3574322;40;20397;-50
2021/07/09 03:36:28;;;;;;;12.90;11.45;;;;;;;17.56;100.00;100915.69;3574406;40;20057;-50
2021/07/09 03:38:57;;;;;;;13.98;11.93;;;;;;;17.51;100.00;100917.38;3574150;40;20459;-53
2021/07/09 03:41:25;;;;;;;13.65;12.23;;;;;;;17.56;100.00;100912.19;3574290;40;20065;-50
2021/07/09 03:43:52;;;;;;;13.88;11.32;;;;;;;17.73;100.00;100905.34;3574449;40;20116;-51
2021/07/09 03:46:19;;;;;;;14.60;11.13;;;;;;;17.71;100.00;100906.19;3574218;40;20412;-49
2021/07/09 03:48:47;;;;;;;12.93;11.00;;;;;;;17.71;100.00;100898.41;3574332;40;20184;-53
2021/07/09 03:51:14;;;;;;;15.68;11.75;;;;;;;17.55;100.00;100898.41;3574502;40;20112;-52
2021/07/09 03:53:41;;;;;;;13.40;11.95;;;;;;;17.62;100.00;100893.25;3574211;40;20873;-51
2021/07/09 03:56:08;;;;;;;15.70;12.93;;;;;;;17.49;100.00;100906.16;3574406;40;20813;-51
2021/07/09 03:58:35;;;;;;;16.23;13.23;;;;;;;17.44;100.00;100905.31;3572144;40;20068;-53
2021/07/09 04:01:04;;;;;;;19.05;13.90;;;;;;;17.59;100.00;100904.44;3573989;40;20063;-48
2021/07/09 04:03:31;;;;;;;17.80;14.40;;;;;;;17.49;100.00;100900.13;3574918;40;20057;-54
2021/07/09 04:05:58;;;;;;;17.90;13.80;;;;;;;17.64;100.00;100894.94;3574171;40;20081;-51
2021/07/09 04:08:25;;;;;;;15.57;13.30;;;;;;;17.50;100.00;100900.13;3573976;40;20094;-53
2021/07/09 04:10:52;;;;;;;16.02;14.38;;;;;;;17.46;100.00;100894.94;3574392;40;20322;-53
2021/07/09 04:13:19;;;;;;;17.55;13.93;;;;;;;17.74;100.00;100895.84;3574145;40;20097;-51
2021/07/09 04:15:46;;;;;;;15.57;14.07;;;;;;;17.65;100.00;100898.41;3574524;40;20056;-54
2021/07/09 04:18:13;;;;;;;18.38;15.25;;;;;;;17.64;100.00;100894.94;3574167;40;20044;-48
2021/07/09 04:20:40;;;;;;;15.10;13.55;;;;;;;17.71;100.00;100895.84;3573918;40;20339;-49
2021/07/09 04:23:07;;;;;;;18.10;14.98;;;;;;;17.71;100.00;100890.66;3574223;40;20077;-53
2021/07/09 04:25:35;;;;;;;18.42;16.13;;;;;;;17.66;100.00;100882.88;3574148;40;20092;-48
2021/07/09 04:28:02;;;;;;;17.20;15.38;;;;;;;18.00;100.00;100875.09;3574054;40;20089;-49
2021/07/09 04:30:29;;;;;;;16.88;15.13;;;;;;;17.94;100.00;100875.13;3573971;40;20053;-54
2021/07/09 04:32:56;;;;;;;17.13;15.18;;;;;;;17.90;100.00;100868.22;3573627;40;20104;-53
2021/07/09 04:35:23;;;;;;;20.20;15.88;;;;;;;18.04;100.00;100859.53;3574067;40;20092;-51
2021/07/09 04:37:50;;;;;;;18.30;15.40;;;;;;;17.81;100.00;100862.16;3573737;40;20104;-55
2021/07/09 04:40:18;;;;;;;21.42;15.75;;;;;;;17.77;100.00;100857.84;3574118;40;20113;-51
2021/07/09 04:42:45;;;;;;;19.13;16.50;;;;;;;17.74;100.00;100860.44;3573864;40;20085;-54
2021/07/09 04:45:13;;;;;;;23.85;17.38;;;;;;;17.63;100.00;100856.13;3573959;40;20089;-52
2021/07/09 04:47:40;;;;;;;19.30;16.85;;;;;;;17.75;100.00;100853.56;3573740;40;20093;-53
2021/07/09 04:50:08;;;;;;;20.95;18.63;;;;;;;17.63;100.00;100850.94;3574067;40;20049;-49
2021/07/09 04:52:43;;;;;;;21.08;17.52;;;;;;;17.69;100.00;100850.91;3573732;40;20138;-52
2021/07/09 04:55:12;;;;;;;22.67;17.73;;;;;;;17.64;100.00;100842.28;3573970;40;20421;-51
2021/07/09 04:57:39;;;;;;;18.98;16.73;;;;;;;17.80;100.00;100847.50;3573664;40;20072;-50
2021/07/09 05:00:07;;;;;;;21.75;17.15;;;;;;;17.76;100.00;100843.19;3573633;40;20088;-49
2021/07/09 05:02:38;;;;;;;22.35;18.23;;;;;;;17.64;100.00;100834.53;3573971;40;20331;-48
2021/07/09 05:05:10;;;;;;;21.63;17.25;;;;;;;17.92;100.00;100833.63;3573886;40;20061;-52
2021/07/09 05:07:37;;;;;;;18.75;16.75;;;;;;;17.85;100.00;100839.72;3573532;40;20097;-53
2021/07/09 05:10:05;;;;;;;18.42;16.00;;;;;;;17.68;100.00;100831.06;3573600;40;20076;-49
2021/07/09 05:12:33;;;;;;;19.90;17.80;;;;;;;18.01;100.00;100831.03;3573702;40;20072;-51
2021/07/09 05:15:00;;;;;;;19.65;17.60;;;;;;;17.90;100.00;100829.34;3573506;40;20100;-52
2021/07/09 05:17:27;;;;;;;20.17;18.00;;;;;;;17.76;100.00;100829.38;3573419;40;20051;-53
2021/07/09 05:19:54;;;;;;;20.92;17.75;;;;;;;17.83;100.00;100822.44;3573574;40;20448;-52
2021/07/09 05:22:21;;;;;;;21.67;18.00;;;;;;;17.84;100.00;100809.50;3573598;40;20065;-48
2021/07/09 05:24:54;;;;;;;25.27;18.83;;;;;;;17.84;100.00;100801.72;3574069;40;20468;-55
2021/07/09 05:27:22;;;;;;;20.45;16.83;;;;;;;18.11;100.00;100786.94;3573332;40;20085;-50
2021/07/09 05:29:50;;;;;;;24.10;17.48;;;;;;;18.11;100.00;100771.41;3573484;40;20356;-51
2021/07/09 05:32:22;;;;;;;23.92;19.30;;;;;;;17.68;100.00;100759.41;3573977;40;20407;-51
2021/07/09 05:34:50;;;;;;;20.42;17.92;;;;;;;17.88;100.00;100748.16;3573366;40;20055;-49
2021/07/09 05:37:18;;;;;;;21.38;18.85;;;;;;;18.06;100.00;100751.53;3573735;40;20057;-52
2021/07/09 05:39:45;;;;;;;24.10;20.08;;;;;;;17.84;100.00;100752.50;3573518;40;20053;-51
2021/07/09 05:42:12;;;;;;;21.30;18.13;;;;;;;18.13;100.00;100751.53;3573571;40;20100;-50
2021/07/09 05:44:40;;;;;;;21.83;19.52;;;;;;;17.97;100.00;100741.22;3574675;40;20109;-50
2021/07/09 05:47:08;;;;;;;20.33;18.20;;;;;;;18.01;100.00;100755.03;3574995;40;20083;-52
2021/07/09 05:49:35;;;;;;;20.20;18.05;;;;;;;18.17;100.00;100754.09;3574988;40;20112;-50
2021/07/09 05:52:02;;;;;;;20.67;18.52;;;;;;;18.24;100.00;100758.38;3575071;40;20442;-48
2021/07/09 05:54:29;;;;;;;19.52;17.63;;;;;;;18.20;100.00;100767.03;3575184;40;20069;-49
2021/07/09 05:56:56;;;;;;;20.42;17.83;;;;;;;18.17;100.00;100764.47;3574895;40;20159;-49
2021/07/09 05:59:23;;;;;;;22.35;19.33;;;;;;;18.09;100.00;100779.19;3574633;40;20061;-51
2021/07/09 06:01:51;;;;;;;22.33;19.92;;;;;;;18.05;100.00;100790.44;3574911;40;20061;-50
2021/07/09 06:04:18;;;;;;;23.35;18.63;;;;;;;18.06;100.00;100807.69;3575134;40;20334;-50
2021/07/09 06:06:46;;;;;;;23.85;18.90;;;;;;;18.01;100.00;100799.06;3575021;40;20445;-51
2021/07/09 06:09:13;;;;;;;20.27;18.17;;;;;;;18.22;100.00;100799.00;3574552;40;20081;-50
2021/07/09 06:11:40;;;;;;;20.42;18.17;;;;;;;18.21;100.00;100783.44;3574720;40;20093;-48
2021/07/09 06:14:08;;;;;;;21.85;18.63;;;;;;;18.10;100.00;100782.63;3575086;40;20071;-53
2021/07/09 06:16:34;;;;;;;20.45;18.02;;;;;;;18.23;100.00;100780.00;3574903;40;20439;-48
2021/07/09 06:19:02;;;;;;;23.95;19.50;;;;;;;17.90;100.00;100780.97;3574652;40;20049;-49
2021/07/09 06:21:29;;;;;;;21.63;18.67;;;;;;;18.02;100.00;100788.69;3574607;40;20044;-49
2021/07/09 06:23:56;;;;;;;22.02;19.02;;;;;;;17.88;100.00;100795.66;3574878;40;20088;-51
2021/07/09 06:26:23;;;;;;;20.50;18.27;;;;;;;18.20;100.00;100790.34;3574369;40;20093;-48
2021/07/09 06:28:50;;;;;;;21.10;18.08;;;;;;;18.10;100.00;100795.59;3574768;40;20064;-52
2021/07/09 06:31:17;;;;;;;19.63;17.23;;;;;;;18.25;100.00;100795.53;3574827;40;20064;-52
2021/07/09 06:33:45;;;;;;;19.30;16.70;;;;;;;18.09;100.00;100805.09;3574904;40;20047;-54
2021/07/09 06:36:12;;;;;;;20.05;17.88;;;;;;;18.04;100.00;100801.66;3574813;40;20363;-48
2021/07/09 06:38:43;;;;;;;18.85;16.92;;;;;;;18.13;100.00;100805.97;3574735;40;20084;-49
2021/07/09 06:41:10;;;;;;;20.95;18.02;;;;;;;18.09;100.00;100801.66;3574766;40;20080;-50
2021/07/09 06:43:37;;;;;;;19.80;17.38;;;;;;;18.25;100.00;100801.56;3574986;40;20355;-52
2021/07/09 06:46:04;;;;;;;20.40;18.00;;;;;;;18.01;100.00;100804.25;3574669;40;20063;-50
2021/07/09 06:48:31;;;;;;;18.55;16.42;;;;;;;18.35;100.00;100797.22;3574426;40;20060;-53
2021/07/09 06:50:58;;;;;;;19.98;17.20;;;;;;;18.16;100.00;100804.19;3574718;40;20308;-53
2021/07/09 06:53:25;;;;;;;21.70;17.63;;;;;;;18.12;100.00;100799.03;3574516;40;20104;-48
2021/07/09 06:55:52;;;;;;;19.35;17.25;;;;;;;18.38;100.00;100799.78;3574134;40;20061;-49
2021/07/09 06:58:19;;;;;;;18.52;16.38;;;;;;;18.48;100.00;100800.59;3574807;40;20464;-53
2021/07/09 07:00:46;;;;;;;20.10;16.75;;;;;;;18.49;100.00;100797.16;3574668;40;20088;-56
2021/07/09 07:03:14;;;;;;;17.77;16.02;;;;;;;18.48;100.00;100796.28;3574645;40;20065;-51
2021/07/09 07:05:42;;;;;;;18.75;16.77;;;;;;;18.24;100.00;100799.00;3574827;40;20113;-51
2021/07/09 07:08:15;;;;;;;19.63;17.45;;;;;;;18.36;100.00;100790.31;3574454;40;20499;-51
2021/07/09 07:10:43;;;;;;;20.50;17.48;;;;;;;18.22;100.00;100787.78;3574560;40;20053;-48
2021/07/09 07:13:10;;;;;;;19.92;16.98;;;;;;;18.41;100.00;100785.97;3574355;40;20547;-51
2021/07/09 07:15:39;;;;;;;21.13;17.38;;;;;;;18.48;100.00;100778.13;3574715;40;20725;-49
2021/07/09 07:18:08;;;;;;;18.55;16.67;;;;;;;18.66;100.00;100771.97;3574333;40;20052;-48
2021/07/09 07:20:36;;;;;;;19.88;17.48;;;;;;;18.45;100.00;100774.72;3574228;40;20053;-52
2021/07/09 07:23:04;;;;;;;18.05;16.15;;;;;;;18.43;100.00;100773.84;3574458;40;20108;-55
2021/07/09 07:25:31;;;;;;;20.02;17.90;;;;;;;18.42;100.00;100761.75;3574591;40;20100;-48
2021/07/09 07:28:00;;;;;;;19.42;17.42;;;;;;;18.77;100.00;100759.00;3574252;40;20065;-48
2021/07/09 07:30:27;;;;;;;18.27;16.25;;;;;;;18.76;100.00;100760.69;3574070;40;20093;-52
2021/07/09 07:32:54;;;;;;;18.80;16.38;;;;;;;18.98;100.00;100757.94;3574220;40;20161;-54
2021/07/09 07:35:22;;;;;;;17.67;15.95;;;;;;;19.11;100.00;100758.72;3574416;40;20056;-48
2021/07/09 07:37:50;;;;;;;17.00;15.25;;;;;;;19.19;100.00;100754.34;3574774;40;20405;-55
2021/07/09 07:40:18;;;;;;;16.95;14.88;;;;;;;19.14;100.00;100751.78;3574166;40;20326;-48
2021/07/09 07:42:46;;;;;;;17.30;15.50;;;;;;;19.02;100.00;100752.72;3574225;40;20051;-51
2021/07/09 07:45:13;;;;;;;17.23;15.48;;;;;;;18.72;100.00;100756.44;3574290;40;20068;-50
2021/07/09 07:47:41;;;;;;;16.58;14.95;;;;;;;19.20;100.00;100748.25;3574217;40;20076;-51
2021/07/09 07:50:09;;;;;;;16.35;14.75;;;;;;;19.55;100.00;100755.69;3574274;40;20089;-48
2021/07/09 07:52:37;;;;;;;15.43;13.93;;;;;;;19.44;100.00;100747.16;3574039;40;20526;-51
2021/07/09 07:55:05;;;;;;;20.98;14.55;;;;;;;19.19;100.00;100742.22;3574450;40;20100;-50
2021/07/09 07:57:32;;;;;;;14.95;13.43;;;;;;;19.49;100.00;100746.25;3574105;40;20071;-52
2021/07/09 07:59:59;;;;;;;15.55;13.25;;;;;;;19.70;100.00;100739.16;3574118;40;20060;-49
2021/07/09 08:02:26;;;;;;;16.52;13.82;;;;;;;19.58;100.00;100750.47;3574083;40;20089;-47
2021/07/09 08:04:53;;;;;;;16.10;14.50;;;;;;;19.71;100.00;100746.06;3574327;40;20346;-49
2021/07/09 08:07:20;;;;;;;15.75;13.35;;;;;;;19.77;100.00;100743.38;3573601;40;20069;-52
2021/07/09 08:09:47;;;;;;;16.25;14.68;;;;;;;19.97;100.00;100744.03;3574177;40;20085;-50
2021/07/09 08:12:15;;;;;;;15.77;14.27;;;;;;;20.21;100.00;100744.59;3574089;40;20067;-50
2021/07/09 08:14:42;;;;;;;15.35;13.70;;;;;;;20.07;100.00;100743.03;3573756;40;20411;-53
2021/07/09 08:17:09;;;;;;;18.63;15.35;;;;;;;19.78;100.00;100743.38;3574080;40;20101;-48
2021/07/09 08:19:36;;;;;;;17.23;15.50;;;;;;;19.92;100.00;100739.72;3573936;40;20138;-51
2021/07/09 08:22:03;;;;;;;21.05;17.70;;;;;;;19.72;100.00;100745.16;3574028;40;20069;-48
2021/07/09 08:24:30;;;;;;;17.50;15.88;;;;;;;19.92;100.00;100742.34;3573839;40;20073;-53
2021/07/09 08:26:57;;;;;;;17.73;15.45;;;;;;;20.29;100.00;100753.13;3574239;40;20089;-53
2021/07/09 08:29:25;;;;;;;17.83;16.17;;;;;;;20.32;100.00;100750.50;3574123;40;20069;-51
2021/07/09 08:31:54;;;;;;;18.90;17.00;;;;;;;20.22;100.00;100757.56;3574174;40;20142;-48
2021/07/09 08:34:21;;;;;;;18.27;15.88;;;;;;;20.80;100.00;100756.78;3574097;40;20126;-49
2021/07/09 08:36:48;;;;;;;16.35;14.77;;;;;;;20.89;100.00;100750.56;3574073;40;20056;-51
2021/07/09 08:39:16;;;;;;;15.80;14.27;;;;;;;21.76;100.00;100759.47;3573751;40;20135;-51
2021/07/09 08:41:46;;;;;;;15.35;13.75;;;;;;;22.01;100.00;100756.38;3574191;40;20049;-48
2021/07/09 08:44:13;;;;;;;14.85;13.40;;;;;;;21.69;100.00;100763.09;3573778;40;20049;-56
2021/07/09 08:46:41;;;;;;;15.18;13.35;;;;;;;21.51;100.00;100763.44;3574073;40;20061;-54
2021/07/09 08:49:13;;;;;;;14.70;13.45;;;;;;;21.64;100.00;100753.66;3573796;40;20057;-48
2021/07/09 08:51:40;;;;;;;14.60;13.13;;;;;;;21.23;100.00;100758.69;3573886;40;20060;-48
2021/07/09 08:54:15;;;;;;;15.30;13.90;;;;;;;21.10;100.00;100757.16;3574121;40;20052;-52
2021/07/09 08:56:43;;;;;;;15.63;14.07;;;;;;;21.21;100.00;100754.38;3573902;40;20085;-51
2021/07/09 08:59:10;;;;;;;14.75;13.18;;;;;;;21.34;100.00;100755.91;3573840;40;20808;-51
2021/07/09 09:02:06;;;;;;;14.23;13.00;;;;;;;21.07;100.00;100752.00;3573946;40;20768;-51
2021/07/09 09:04:35;;;;;;;17.55;13.57;;;;;;;21.15;100.00;100746.66;3563289;40;20045;-50
2021/07/09 09:07:08;;;;;;;13.20;11.98;;;;;;;21.08;100.00;100749.38;3573769;40;20097;-52
2021/07/09 09:09:37;;;;;;;14.70;13.25;;;;;;;20.83;100.00;100758.47;3573581;40;20041;-48
2021/07/09 09:12:08;;;;;;;14.40;13.05;;;;;;;20.74;100.00;100759.47;3573894;40;20088;-48
2021/07/09 09:14:49;;;;;;;14.63;13.15;;;;;;;20.85;100.00;100754.97;3573531;40;20057;-51
2021/07/09 09:17:37;;;;;;;14.07;12.60;;;;;;;20.69;100.00;100760.41;3573721;40;20053;-52
2021/07/09 09:20:11;;;;;;;14.35;12.88;;;;;;;21.17;100.00;100752.69;3574934;40;20085;-48
2021/07/09 09:22:54;;;;;;;14.77;13.43;;;;;;;21.00;100.00;100759.06;3575286;40;20110;-50
2021/07/09 09:25:26;;;;;;;13.32;12.23;;;;;;;20.99;100.00;100757.34;3575274;40;20096;-51
2021/07/09 09:28:02;;;;;;;13.50;12.35;;;;;;;21.08;100.00;100759.81;3575333;40;20101;-52
2021/07/09 09:30:29;;;;;;;13.90;12.70;;;;;;;20.77;100.00;100766.38;3575096;40;20052;-50
2021/07/09 09:33:01;;;;;;;14.43;13.15;;;;;;;21.08;100.00;100761.56;3575226;40;20088;-54
2021/07/09 09:35:31;;;;;;;14.98;13.38;;;;;;;20.58;100.00;100760.59;3575160;40;20045;-51
2021/07/09 09:38:02;;;;;;;14.65;13.43;;;;;;;20.76;100.00;100759.47;3575204;40;20057;-51
2021/07/09 09:40:29;;;;;;;17.05;12.52;;;;;;;20.84;100.00;100761.06;3575292;40;20057;-48
2021/07/09 09:42:56;;;;;;;12.95;11.85;;;;;;;20.98;100.00;100752.16;3575283;40;20145;-52
2021/07/09 09:45:26;;;;;;;13.50;12.23;;;;;;;20.80;100.00;100753.31;3575265;40;20347;-48
2021/07/09 09:48:03;;;;;;;13.25;11.98;;;;;;;20.50;100.00;100755.47;3575104;40;20068;-49
2021/07/09 09:50:30;;;;;;;12.30;11.20;;;;;;;20.41;100.00;100752.97;3574931;40;20101;-50
2021/07/09 09:52:57;;;;;;;13.40;12.20;;;;;;;20.40;100.00;100748.66;3575111;40;20064;-48
2021/07/09 09:55:32;;;;;;;14.32;12.60;;;;;;;20.48;100.00;100749.44;3575191;40;20094;-50
2021/07/09 09:58:19;;;;;;;14.80;12.77;;;;;;;20.38;100.00;100744.34;3575031;40;20351;-51
2021/07/09 10:00:48;;;;;;;13.63;12.23;;;;;;;20.46;100.00;100748.56;3574955;40;20063;-52
2021/07/09 10:03:18;;;;;;;13.63;12.43;;;;;;;20.37;100.00;100751.28;3575385;40;20060;-52
2021/07/09 10:05:47;;;;;;;13.77;12.32;;;;;;;20.27;100.00;100750.56;3575439;40;20343;-54
2021/07/09 10:08:18;;;;;;;13.98;12.68;;;;;;;20.26;100.00;100748.84;3575114;40;20451;-55
2021/07/09 10:10:45;;;;;;;13.13;11.90;;;;;;;20.42;100.00;100744.28;3575016;40;20088;-50
2021/07/09 10:13:15;;;;;;;12.82;11.52;;;;;;;20.50;100.00;100736.41;3575165;40;20498;-48
2021/07/09 10:15:43;;;;;;;12.73;11.57;;;;;;;20.29;100.00;100737.53;3574823;40;20069;-52
2021/07/09 10:18:15;;;;;;;14.95;13.52;;;;;;;20.23;100.00;100732.41;3574823;40;20079;-50
2021/07/09 10:20:44;;;;;;;14.73;13.32;;;;;;;20.03;100.00;100741.34;3574877;40;20839;-48
2021/07/09 10:23:15;;;;;;;17.08;14.70;;;;;;;19.82;100.00;100733.78;3574593;40;20067;-51
2021/07/09 10:25:45;;;;;;;14.80;13.50;;;;;;;20.15;100.00;100736.84;3574828;40;20075;-52
2021/07/09 10:28:16;;;;;;;14.88;13.38;;;;;;;20.23;100.00;100740.22;3574750;40;20104;-54
2021/07/09 10:30:43;;;;;;;16.55;14.88;;;;;;;19.81;100.00;100732.94;3574223;40;20079;-48
2021/07/09 10:33:28;;;;;;;16.50;14.93;;;;;;;19.78;100.00;100734.69;3574763;40;20428;-51
2021/07/09 10:35:56;;;;;;;17.05;15.43;;;;;;;19.95;100.00;100732.75;3574819;40;20453;-53
2021/07/09 10:38:24;;;;;;;14.32;12.93;;;;;;;20.32;100.00;100724.50;3574709;40;20088;-53
2021/07/09 10:40:51;;;;;;;16.20;14.48;;;;;;;20.21;100.00;100722.03;3575017;40;20097;-49
2021/07/09 10:43:19;;;;;;;17.38;15.57;;;;;;;19.78;100.00;100716.50;3574986;40;20085;-49
2021/07/09 10:45:47;;;;;;;17.77;15.98;;;;;;;20.02;100.00;100721.44;3574812;40;20057;-56
2021/07/09 10:48:15;;;;;;;17.77;13.75;;;;;;;19.71;100.00;100713.13;3574733;40;20081;-54
2021/07/09 10:50:49;;;;;;;20.00;17.90;;;;;;;19.73;100.00;100719.16;3574702;40;20113;-52
2021/07/09 10:53:18;;;;;;;16.75;15.00;;;;;;;20.03;100.00;100717.94;3574764;40;20099;-48
2021/07/09 10:55:58;;;;;;;17.08;15.48;;;;;;;19.79;100.00;100721.72;3574597;40;20041;-48
2021/07/09 10:58:34;;;;;;;17.40;15.60;;;;;;;19.80;100.00;100720.81;3574490;40;20084;-50
2021/07/09 11:01:01;;;;;;;;;;;;;;;19.66;100.00;100719.25;3575111;40;20112;-48
2021/07/09 11:03:41;;;;;;;18.52;16.80;;;;;;;19.77;100.00;100718.25;3574673;40;19940;-48
2021/07/09 11:06:20;;;;;;;20.13;18.17;;;;;;;19.55;100.00;100717.63;3574609;40;20106;-50
2021/07/09 11:09:08;;;;;;;20.58;18.55;;;;;;;19.95;100.00;100719.78;3574739;40;20049;-51